Time;durP1;ratioP1;P1;durP2;ratioP2;P2;SDS_P1;SDS_P2;PMS_P1;PMS_P2;Temp;Humidity;BMP_temperature;BMP_pressure;BME280_temperature;BME280_humidity;BME280_pressure;Samples;Min_cycle;Max_cycle;Signal;HPM_P1;HPM_P2
2021/10/25 00:01:32;;;;;;;3.65;2.17;;;;;;;;;;4364915;32;20110;-62
2021/10/25 00:03:59;;;;;;;3.03;2.00;;;;;;;;;;4352547;32;20137;-62
2021/10/25 00:06:25;;;;;;;3.33;2.20;;;;;;;;;;4339893;32;20504;-63
2021/10/25 00:08:52;;;;;;;2.97;2.25;;;;;;;;;;4352175;32;20441;-62
2021/10/25 00:11:19;;;;;;;5.05;2.35;;;;;;;;;;4352438;32;20074;-63
2021/10/25 00:13:45;;;;;;;2.85;1.90;;;;;;;;;;4364944;32;20187;-63
2021/10/25 00:16:12;;;;;;;2.40;2.17;;;;;;;;;;4351896;32;20640;-62
2021/10/25 00:18:39;;;;;;;2.60;2.00;;;;;;;;;;4364851;32;20093;-63
2021/10/25 00:21:05;;;;;;;3.55;2.30;;;;;;;;;;4352405;32;20102;-63
2021/10/25 00:23:32;;;;;;;2.72;2.00;;;;;;;;;;4364861;32;20085;-63
2021/10/25 00:25:58;;;;;;;3.62;2.15;;;;;;;;;;4352475;32;20078;-63
2021/10/25 00:28:25;;;;;;;5.18;2.37;;;;;;;;;;4352141;32;20078;-63
2021/10/25 00:30:51;;;;;;;2.53;2.10;;;;;;;;;;4364699;32;20093;-63
2021/10/25 00:33:18;;;;;;;2.72;1.62;;;;;;;;;;4364548;32;20062;-62
2021/10/25 00:35:44;;;;;;;2.87;2.00;;;;;;;;;;4351599;32;20081;-62
2021/10/25 00:38:11;;;;;;;2.35;1.75;;;;;;;;;;4364701;32;20073;-62
2021/10/25 00:40:38;;;;;;;1.70;1.60;;;;;;;;;;4365073;32;20089;-62
2021/10/25 00:43:04;;;;;;;2.83;1.90;;;;;;;;;;4365838;32;20114;-63
2021/10/25 00:45:31;;;;;;;4.43;1.90;;;;;;;;;;4352008;32;20082;-63
2021/10/25 00:47:58;;;;;;;2.97;1.92;;;;;;;;;;4351706;32;20090;-61
2021/10/25 00:50:25;;;;;;;4.62;2.37;;;;;;;;;;4364272;32;20085;-63
2021/10/25 00:52:52;;;;;;;3.40;1.90;;;;;;;;;;4364366;32;20078;-61
2021/10/25 00:55:18;;;;;;;4.03;2.28;;;;;;;;;;4351764;32;20092;-63
2021/10/25 00:57:45;;;;;;;3.75;2.00;;;;;;;;;;4351955;32;20592;-63
2021/10/25 01:00:12;;;;;;;3.85;2.08;;;;;;;;;;4339021;32;20534;-62
2021/10/25 01:02:39;;;;;;;2.87;1.77;;;;;;;;;;4346400;33;20110;-62
2021/10/25 01:05:06;;;;;;;3.37;1.80;;;;;;;;;;4334271;33;20086;-61
2021/10/25 01:07:33;;;;;;;2.50;1.67;;;;;;;;;;4348089;33;20497;-61
2021/10/25 01:10:01;;;;;;;2.55;1.80;;;;;;;;;;4367382;32;20066;-62
2021/10/25 01:12:27;;;;;;;2.20;1.35;;;;;;;;;;4339858;33;20105;-61
2021/10/25 01:14:54;;;;;;;2.75;1.48;;;;;;;;;;4334118;33;20190;-63
2021/10/25 01:17:21;;;;;;;1.92;1.52;;;;;;;;;;4346635;32;20077;-62
2021/10/25 01:19:53;;;;;;;1.58;1.30;;;;;;;;;;4334690;33;20079;-62
2021/10/25 01:22:20;;;;;;;3.03;1.37;;;;;;;;;;4333963;33;20154;-62
2021/10/25 01:24:47;;;;;;;2.72;1.50;;;;;;;;;;4346944;32;20077;-62
2021/10/25 01:27:13;;;;;;;1.48;1.33;;;;;;;;;;4346858;33;20509;-62
2021/10/25 01:29:40;;;;;;;2.17;1.60;;;;;;;;;;4346376;32;20090;-61
2021/10/25 01:32:06;;;;;;;2.35;1.70;;;;;;;;;;4333901;33;20079;-62
2021/10/25 01:34:33;;;;;;;2.70;1.80;;;;;;;;;;4346051;32;20110;-62
2021/10/25 01:37:00;;;;;;;2.08;1.73;;;;;;;;;;4347504;32;20074;-63
2021/10/25 01:39:27;;;;;;;1.92;1.67;;;;;;;;;;4333629;33;20211;-63
2021/10/25 01:41:54;;;;;;;1.42;1.33;;;;;;;;;;4345972;32;20110;-61
2021/10/25 01:44:21;;;;;;;2.92;1.58;;;;;;;;;;4346177;33;20155;-63
2021/10/25 01:49:27;;;;;;;1.30;1.08;;;;;;;;;;3857338;37;20066;-62
2021/10/25 01:51:54;;;;;;;1.92;1.30;;;;;;;;;;4405571;32;20077;-63
2021/10/25 01:54:20;;;;;;;2.90;1.30;;;;;;;;;;4393503;32;20075;-63
2021/10/25 01:56:47;;;;;;;1.98;1.42;;;;;;;;;;4405843;32;20161;-62
2021/10/25 01:59:14;;;;;;;1.85;1.50;;;;;;;;;;4405768;32;20069;-63
2021/10/25 02:01:41;;;;;;;2.45;1.20;;;;;;;;;;4380591;32;20101;-63
2021/10/25 02:04:07;;;;;;;1.33;1.12;;;;;;;;;;4418246;32;20079;-63
2021/10/25 02:06:34;;;;;;;1.90;1.67;;;;;;;;;;4394076;32;20081;-61
2021/10/25 02:09:01;;;;;;;1.77;1.55;;;;;;;;;;4383060;32;20088;-62
2021/10/25 02:11:28;;;;;;;2.42;1.62;;;;;;;;;;4396234;32;20092;-62
2021/10/25 02:13:54;;;;;;;1.67;1.55;;;;;;;;;;4396879;32;20068;-60
2021/10/25 02:16:21;;;;;;;2.53;1.90;;;;;;;;;;4406909;32;20609;-62
2021/10/25 02:18:48;;;;;;;1.55;1.42;;;;;;;;;;4394400;32;20081;-61
2021/10/25 02:21:15;;;;;;;3.35;1.80;;;;;;;;;;4395052;32;20066;-62
2021/10/25 02:23:41;;;;;;;2.55;1.92;;;;;;;;;;4407657;32;20085;-63
2021/10/25 02:26:08;;;;;;;3.17;2.20;;;;;;;;;;4390580;32;20096;-62
2021/10/25 02:28:35;;;;;;;3.40;2.40;;;;;;;;;;4402552;32;20073;-62
2021/10/25 02:31:02;;;;;;;2.40;2.10;;;;;;;;;;4390351;32;20073;-62
2021/10/25 02:33:28;;;;;;;2.83;2.00;;;;;;;;;;4390475;32;20081;-63
2021/10/25 02:35:55;;;;;;;3.03;2.03;;;;;;;;;;4390352;32;20057;-63
2021/10/25 02:38:22;;;;;;;3.65;2.10;;;;;;;;;;4377411;32;20137;-62
2021/10/25 02:40:48;;;;;;;2.85;2.10;;;;;;;;;;4402273;32;20077;-63
2021/10/25 02:43:15;;;;;;;3.95;2.15;;;;;;;;;;4403858;32;20070;-62
2021/10/25 02:45:43;;;;;;;3.65;2.30;;;;;;;;;;4389752;32;20157;-62
2021/10/25 02:48:11;;;;;;;4.37;2.28;;;;;;;;;;4402107;32;20151;-63
2021/10/25 02:50:38;;;;;;;2.58;1.80;;;;;;;;;;4390433;32;20498;-62
2021/10/25 02:53:07;;;;;;;3.45;2.25;;;;;;;;;;4402723;32;20108;-63
2021/10/25 02:55:34;;;;;;;3.12;2.03;;;;;;;;;;4390283;32;20073;-62
2021/10/25 02:58:02;;;;;;;4.20;2.28;;;;;;;;;;4377300;32;20081;-63
2021/10/25 03:00:28;;;;;;;3.35;2.17;;;;;;;;;;4369328;32;20104;-62
2021/10/25 03:02:55;;;;;;;5.97;2.58;;;;;;;;;;4379588;32;20173;-63
2021/10/25 03:05:22;;;;;;;3.17;2.30;;;;;;;;;;4367407;32;20093;-63
2021/10/25 03:07:49;;;;;;;2.78;2.08;;;;;;;;;;4380229;32;20071;-64
2021/10/25 03:10:16;;;;;;;2.45;1.85;;;;;;;;;;4379689;32;20080;-62
2021/10/25 03:12:43;;;;;;;3.30;2.15;;;;;;;;;;4379460;32;20092;-62
2021/10/25 03:15:10;;;;;;;3.62;2.05;;;;;;;;;;4366544;32;20081;-63
2021/10/25 03:17:36;;;;;;;2.97;2.25;;;;;;;;;;4392709;32;20081;-63
2021/10/25 03:20:06;;;;;;;2.58;2.10;;;;;;;;;;4355063;32;20074;-63
2021/10/25 03:22:33;;;;;;;3.62;2.30;;;;;;;;;;4380070;32;20084;-62
2021/10/25 03:25:00;;;;;;;3.78;2.15;;;;;;;;;;4367048;32;20129;-62
2021/10/25 03:27:27;;;;;;;3.22;2.35;;;;;;;;;;4366733;32;20145;-63
2021/10/25 03:29:53;;;;;;;3.25;2.28;;;;;;;;;;4366901;32;20166;-62
2021/10/25 03:32:20;;;;;;;4.37;2.22;;;;;;;;;;4391446;32;20077;-63
2021/10/25 03:34:47;;;;;;;3.78;2.20;;;;;;;;;;4366453;32;20078;-62
2021/10/25 03:37:14;;;;;;;3.33;2.12;;;;;;;;;;4391638;32;20086;-61
2021/10/25 03:39:42;;;;;;;3.67;2.72;;;;;;;;;;4379375;32;20084;-63
2021/10/25 03:42:17;;;;;;;3.28;2.40;;;;;;;;;;4366638;32;20588;-61
2021/10/25 03:44:51;;;;;;;3.90;2.50;;;;;;;;;;4391453;32;20074;-63
2021/10/25 03:47:28;;;;;;;5.37;2.40;;;;;;;;;;4380504;32;20246;-62
2021/10/25 03:50:06;;;;;;;3.53;2.60;;;;;;;;;;4381522;32;20425;-62
2021/10/25 03:52:40;;;;;;;4.10;2.17;;;;;;;;;;4381224;32;20149;-62
2021/10/25 03:58:02;;;;;;;4.43;2.33;;;;;;;;;;4378999;32;20169;-62
2021/10/25 04:00:57;;;;;;;2.87;2.10;;;;;;;;;;4381199;32;20093;-63
2021/10/25 04:30:34;;;;;;;1.77;1.67;;;;;;;;;;4379756;32;20076;-62
2021/10/25 04:33:01;;;;;;;3.83;1.87;;;;;;;;;;4390623;32;20152;-62
2021/10/25 04:35:28;;;;;;;1.73;1.37;;;;;;;;;;4353674;32;20069;-62
2021/10/25 04:37:55;;;;;;;2.05;1.80;;;;;;;;;;4378228;32;20099;-62
2021/10/25 04:40:22;;;;;;;2.30;1.75;;;;;;;;;;4378255;32;20098;-62
2021/10/25 04:42:49;;;;;;;2.25;1.90;;;;;;;;;;4374431;32;20074;-62
2021/10/25 04:45:18;;;;;;;3.35;1.92;;;;;;;;;;4389826;32;20065;-63
2021/10/25 04:47:44;;;;;;;2.55;1.70;;;;;;;;;;4384940;32;20070;-63
2021/10/25 04:50:11;;;;;;;2.55;1.80;;;;;;;;;;4350681;32;20084;-62
2021/10/25 04:52:39;;;;;;;2.75;2.00;;;;;;;;;;4338676;32;20070;-63
2021/10/25 04:55:06;;;;;;;2.53;1.87;;;;;;;;;;4350403;32;20073;-62
2021/10/25 04:57:33;;;;;;;2.58;1.60;;;;;;;;;;4363519;32;20163;-62
2021/10/25 05:00:00;;;;;;;3.00;2.03;;;;;;;;;;4375824;32;20437;-60
2021/10/25 05:02:27;;;;;;;2.65;1.85;;;;;;;;;;4351071;32;20093;-61
2021/10/25 05:04:54;;;;;;;2.20;1.73;;;;;;;;;;4363450;32;20074;-61
2021/10/25 05:07:21;;;;;;;2.83;1.73;;;;;;;;;;4367954;32;20109;-64
2021/10/25 05:09:47;;;;;;;2.85;1.95;;;;;;;;;;4385779;32;20132;-62
2021/10/25 05:12:14;;;;;;;3.72;2.08;;;;;;;;;;4375814;32;20086;-62
2021/10/25 05:14:44;;;;;;;7.40;3.70;;;;;;;;;;4350894;32;20216;-63
2021/10/25 05:17:10;;;;;;;7.37;3.90;;;;;;;;;;4350815;32;20101;-62
2021/10/25 05:19:37;;;;;;;4.45;3.10;;;;;;;;;;4350542;32;20089;-64
2021/10/25 05:22:04;;;;;;;4.72;2.50;;;;;;;;;;4349664;32;20159;-62
2021/10/25 05:24:31;;;;;;;4.18;2.28;;;;;;;;;;4375047;32;20522;-63
2021/10/25 05:26:58;;;;;;;4.00;2.90;;;;;;;;;;4350235;32;20070;-62
2021/10/25 05:29:25;;;;;;;6.07;3.05;;;;;;;;;;4362623;32;20161;-64
2021/10/25 05:31:51;;;;;;;6.95;3.72;;;;;;;;;;4338423;32;20097;-62
2021/10/25 05:34:18;;;;;;;7.93;3.08;;;;;;;;;;4374937;32;20078;-61
2021/10/25 05:36:44;;;;;;;5.93;3.00;;;;;;;;;;4338542;32;20085;-62
2021/10/25 05:39:11;;;;;;;6.55;2.45;;;;;;;;;;4363837;32;20106;-63
2021/10/25 05:41:39;;;;;;;3.15;2.30;;;;;;;;;;4362758;32;20093;-62
2021/10/25 05:44:06;;;;;;;3.10;1.62;;;;;;;;;;4338094;32;20150;-63
2021/10/25 05:46:32;;;;;;;2.90;1.90;;;;;;;;;;4362750;32;20081;-64
2021/10/25 05:48:59;;;;;;;2.78;1.67;;;;;;;;;;4350049;32;20077;-62
2021/10/25 05:51:26;;;;;;;2.22;1.45;;;;;;;;;;4374723;32;20081;-63
2021/10/25 05:53:54;;;;;;;3.15;1.98;;;;;;;;;;4350782;32;20471;-63
2021/10/25 05:56:21;;;;;;;3.87;1.95;;;;;;;;;;4362993;32;20169;-64
2021/10/25 05:58:49;;;;;;;3.10;1.70;;;;;;;;;;4352409;32;20086;-64
2021/10/25 06:01:18;;;;;;;2.25;1.50;;;;;;;;;;4363636;32;20144;-63
2021/10/25 06:03:53;;;;;;;1.98;1.67;;;;;;;;;;4362109;32;20081;-62
2021/10/25 06:06:19;;;;;;;4.97;2.15;;;;;;;;;;4363971;32;20075;-62
2021/10/25 06:08:46;;;;;;;3.83;2.00;;;;;;;;;;4349836;32;20062;-62
2021/10/25 06:11:13;;;;;;;2.55;1.70;;;;;;;;;;4362581;32;20169;-63
2021/10/25 06:13:42;;;;;;;3.95;1.92;;;;;;;;;;4350021;32;20070;-65
2021/10/25 06:16:16;;;;;;;2.15;1.87;;;;;;;;;;4362652;32;20086;-62
2021/10/25 06:18:44;;;;;;;2.12;1.73;;;;;;;;;;4363142;32;20088;-63
2021/10/25 06:21:11;;;;;;;5.53;2.00;;;;;;;;;;4350196;32;20555;-65
2021/10/25 06:23:37;;;;;;;3.28;1.98;;;;;;;;;;4374338;32;20090;-62
2021/10/25 06:26:04;;;;;;;6.25;2.03;;;;;;;;;;4365332;32;20596;-64
2021/10/25 06:28:31;;;;;;;2.92;1.55;;;;;;;;;;4373082;32;20113;-66
2021/10/25 06:31:02;;;;;;;6.78;2.62;;;;;;;;;;4375938;32;20146;-65
2021/10/25 06:33:29;;;;;;;5.50;2.75;;;;;;;;;;4351270;32;20571;-67
2021/10/25 06:38:57;;;;;;;3.55;2.33;;;;;;;;;;4364443;32;20070;-66
2021/10/25 06:41:24;;;;;;;4.57;2.58;;;;;;;;;;4370933;32;20081;-65
2021/10/25 06:43:50;;;;;;;2.72;1.98;;;;;;;;;;4375058;32;20568;-65
2021/10/25 06:46:20;;;;;;;3.55;1.98;;;;;;;;;;4376851;32;20503;-67
2021/10/25 06:48:47;;;;;;;2.67;2.05;;;;;;;;;;4366006;32;20093;-66
2021/10/25 06:51:14;;;;;;;3.15;1.98;;;;;;;;;;4354391;32;20448;-66
2021/10/25 06:53:41;;;;;;;1.60;1.50;;;;;;;;;;4357458;32;20088;-68
2021/10/25 06:56:08;;;;;;;3.75;1.95;;;;;;;;;;4367499;32;20102;-64
2021/10/25 06:58:35;;;;;;;2.05;1.30;;;;;;;;;;4356124;32;20093;-65
2021/10/25 07:01:02;;;;;;;4.07;2.33;;;;;;;;;;4365944;32;20072;-64
2021/10/25 07:03:29;;;;;;;5.05;2.20;;;;;;;;;;4376571;32;20117;-64
2021/10/25 07:06:00;;;;;;;5.87;2.60;;;;;;;;;;4388375;32;20528;-67
2021/10/25 07:08:28;;;;;;;3.97;2.22;;;;;;;;;;4366879;32;20070;-64
2021/10/25 07:10:55;;;;;;;3.60;2.10;;;;;;;;;;4378413;32;20113;-65
2021/10/25 07:13:22;;;;;;;2.60;1.87;;;;;;;;;;4383412;32;20093;-65
2021/10/25 07:15:58;;;;;;;2.30;1.40;;;;;;;;;;4374913;32;20451;-66
2021/10/25 07:18:31;;;;;;;2.03;1.30;;;;;;;;;;4378563;32;20602;-66
2021/10/25 07:26:58;;;;;;;2.55;1.62;;;;;;;;;;4363417;32;20153;-67
2021/10/25 08:07:31;;;;;;;1.80;1.37;;;;;;;;;;4381787;32;20066;-65
2021/10/25 08:10:10;;;;;;;1.23;0.93;;;;;;;;;;4375519;32;20094;-65
2021/10/25 08:12:44;;;;;;;2.20;1.00;;;;;;;;;;4363992;32;20070;-64
2021/10/25 08:15:17;;;;;;;0.85;0.50;;;;;;;;;;4377524;32;20065;-64
2021/10/25 08:17:48;;;;;;;3.00;0.82;;;;;;;;;;4375091;32;20088;-63
2021/10/25 08:20:15;;;;;;;0.98;0.93;;;;;;;;;;4364795;32;20085;-63
2021/10/25 08:22:41;;;;;;;1.05;0.88;;;;;;;;;;4364231;32;20535;-64
2021/10/25 08:25:09;;;;;;;2.25;1.27;;;;;;;;;;4376669;32;20077;-62
2021/10/25 08:27:37;;;;;;;4.80;1.60;;;;;;;;;;4373007;32;20089;-63
2021/10/25 08:30:05;;;;;;;1.35;0.55;;;;;;;;;;4364344;32;20512;-63
2021/10/25 08:40:37;;;;;;;5.25;2.40;;;;;;;;;;4390915;32;20181;-62
2021/10/25 08:43:04;;;;;;;0.15;0.13;;;;;;;;;;4375833;32;20066;-63
2021/10/25 08:45:32;;;;;;;6.50;3.65;;;;;;;;;;4372221;32;20093;-64
2021/10/25 08:47:59;;;;;;;5.32;3.22;;;;;;;;;;4368599;32;20205;-63
2021/10/25 08:50:32;;;;;;;7.07;2.97;;;;;;;;;;4380649;32;20074;-63
2021/10/25 08:52:59;;;;;;;4.90;2.35;;;;;;;;;;4360410;32;20477;-63
2021/10/25 08:55:26;;;;;;;8.07;3.55;;;;;;;;;;4383900;32;20089;-63
2021/10/25 08:57:52;;;;;;;5.50;2.58;;;;;;;;;;4382469;32;20080;-63
2021/10/25 09:00:35;;;;;;;4.75;2.60;;;;;;;;;;4363299;32;20081;-64
2021/10/25 09:03:02;;;;;;;4.43;2.28;;;;;;;;;;4374578;32;20065;-63
2021/10/25 09:05:29;;;;;;;3.37;1.42;;;;;;;;;;4353044;32;20147;-63
2021/10/25 09:08:07;;;;;;;1.90;1.15;;;;;;;;;;4375963;32;20168;-63
2021/10/25 09:10:39;;;;;;;2.17;1.20;;;;;;;;;;4386909;32;20094;-63
2021/10/25 09:13:10;;;;;;;1.95;1.10;;;;;;;;;;4376804;32;20055;-63
2021/10/25 09:15:40;;;;;;;1.12;0.98;;;;;;;;;;4377870;32;20077;-63
2021/10/25 09:18:20;;;;;;;0.55;0.55;;;;;;;;;;4360488;32;20100;-63
2021/10/25 09:20:51;;;;;;;1.83;1.33;;;;;;;;;;4382035;32;20085;-64
2021/10/25 09:23:19;;;;;;;1.25;1.00;;;;;;;;;;4351882;32;20066;-65
2021/10/25 09:25:51;;;;;;;0.52;0.43;;;;;;;;;;4379969;32;20524;-65
2021/10/25 09:28:21;;;;;;;3.90;0.93;;;;;;;;;;4360314;32;20090;-63
2021/10/25 09:31:09;;;;;;;1.12;0.80;;;;;;;;;;4369935;32;20070;-65
2021/10/25 09:33:38;;;;;;;1.37;0.77;;;;;;;;;;4351600;32;20105;-64
2021/10/25 09:36:09;;;;;;;1.58;1.00;;;;;;;;;;4375067;32;20164;-65
2021/10/25 09:49:34;;;;;;;0.85;0.65;;;;;;;;;;4356373;32;20482;-64
2021/10/25 09:52:02;;;;;;;0.70;0.70;;;;;;;;;;4374136;32;20510;-64
2021/10/25 09:54:29;;;;;;;1.10;0.82;;;;;;;;;;4360773;32;20102;-62
2021/10/25 09:57:12;;;;;;;1.27;0.88;;;;;;;;;;4382305;32;20181;-62
2021/10/25 09:59:58;;;;;;;1.10;1.00;;;;;;;;;;4383962;32;20106;-62
2021/10/25 10:02:25;;;;;;;0.75;0.68;;;;;;;;;;4374354;32;20086;-62
2021/10/25 10:04:58;;;;;;;1.12;1.00;;;;;;;;;;4373929;32;20085;-64
2021/10/25 10:07:25;;;;;;;2.17;1.10;;;;;;;;;;4374900;32;20059;-64
2021/10/25 10:09:52;;;;;;;1.20;0.68;;;;;;;;;;4377950;32;20155;-63
2021/10/25 10:12:20;;;;;;;1.20;0.77;;;;;;;;;;4384179;32;20085;-63
2021/10/25 10:14:51;;;;;;;1.30;0.93;;;;;;;;;;4369990;32;20086;-62
2021/10/25 10:17:52;;;;;;;0.82;0.82;;;;;;;;;;4369376;32;20561;-62
2021/10/25 10:20:26;;;;;;;0.80;0.80;;;;;;;;;;4375406;32;20077;-63
2021/10/25 10:22:59;;;;;;;0.57;0.57;;;;;;;;;;4378730;32;20193;-64
2021/10/25 10:25:34;;;;;;;1.58;1.20;;;;;;;;;;4388413;32;20073;-63
2021/10/25 10:28:09;;;;;;;1.37;0.93;;;;;;;;;;4382302;32;20066;-62
2021/10/25 10:30:57;;;;;;;0.62;0.62;;;;;;;;;;4389007;32;20579;-63
2021/10/25 10:33:36;;;;;;;4.35;1.00;;;;;;;;;;4375266;32;20081;-63
2021/10/25 10:36:34;;;;;;;1.42;0.95;;;;;;;;;;4346165;32;20086;-63
2021/10/25 10:39:15;;;;;;;0.60;0.60;;;;;;;;;;4367579;32;21414;-64
2021/10/25 10:41:53;;;;;;;0.80;0.80;;;;;;;;;;4358714;32;20065;-62
2021/10/25 10:44:21;;;;;;;1.42;0.70;;;;;;;;;;4373219;32;20616;-63
2021/10/25 10:46:54;;;;;;;0.62;0.52;;;;;;;;;;4375433;32;20149;-63
2021/10/25 10:49:30;;;;;;;2.90;1.00;;;;;;;;;;4364102;32;20085;-62
2021/10/25 10:52:13;;;;;;;0.77;0.70;;;;;;;;;;4378856;32;20089;-62
2021/10/25 10:54:59;;;;;;;2.53;0.85;;;;;;;;;;4379511;32;20078;-64
2021/10/25 10:57:59;;;;;;;0.80;0.80;;;;;;;;;;4378172;32;20495;-63
2021/10/25 11:00:26;;;;;;;0.77;0.52;;;;;;;;;;4377398;32;20076;-65
2021/10/25 11:03:12;;;;;;;1.58;0.88;;;;;;;;;;4352342;32;20062;-64
2021/10/25 11:05:56;;;;;;;0.93;0.80;;;;;;;;;;4353267;32;20123;-61
2021/10/25 11:08:24;;;;;;;1.37;0.80;;;;;;;;;;4365265;32;20228;-62
2021/10/25 11:11:06;;;;;;;1.05;0.73;;;;;;;;;;4376905;32;20083;-61
2021/10/25 11:13:42;;;;;;;0.60;0.60;;;;;;;;;;4376769;32;20077;-62
2021/10/25 11:16:24;;;;;;;0.60;0.60;;;;;;;;;;4380657;32;20085;-64
2021/10/25 11:18:53;;;;;;;0.73;0.60;;;;;;;;;;4391448;32;20086;-63
2021/10/25 11:21:27;;;;;;;0.85;0.82;;;;;;;;;;4378095;32;20089;-62
2021/10/25 11:23:55;;;;;;;0.88;0.70;;;;;;;;;;4377093;32;20082;-61
2021/10/25 11:26:31;;;;;;;0.93;0.43;;;;;;;;;;4364124;32;20517;-63
2021/10/25 11:29:24;;;;;;;1.48;0.90;;;;;;;;;;4376537;32;20102;-61
2021/10/25 11:32:05;;;;;;;1.75;1.20;;;;;;;;;;4364252;32;20551;-62
2021/10/25 11:34:41;;;;;;;1.65;0.90;;;;;;;;;;4373169;32;20143;-64
2021/10/25 11:37:21;;;;;;;1.10;0.98;;;;;;;;;;4391814;32;20165;-62
2021/10/25 11:42:23;;;;;;;3.50;1.20;;;;;;;;;;4391312;32;20138;-62
2021/10/25 11:44:50;;;;;;;1.58;0.80;;;;;;;;;;4379215;32;20065;-61
2021/10/25 11:47:28;;;;;;;1.67;1.02;;;;;;;;;;4378834;32;20133;-62
2021/10/25 11:50:04;;;;;;;0.73;0.62;;;;;;;;;;4391560;32;20105;-63
2021/10/25 11:52:39;;;;;;;4.55;0.85;;;;;;;;;;4353860;32;20189;-63
2021/10/25 11:55:07;;;;;;;1.27;0.80;;;;;;;;;;4356416;32;20093;-64
2021/10/25 11:57:33;;;;;;;1.20;1.08;;;;;;;;;;4381303;32;20078;-62
2021/10/25 12:00:04;;;;;;;4.05;1.05;;;;;;;;;;4378149;32;20074;-63
2021/10/25 12:02:31;;;;;;;2.80;1.20;;;;;;;;;;4383585;32;20097;-61
2021/10/25 12:04:58;;;;;;;1.30;0.73;;;;;;;;;;4373160;32;20508;-64
2021/10/25 12:07:25;;;;;;;1.12;0.80;;;;;;;;;;4365357;32;20858;-64
2021/10/25 12:10:04;;;;;;;1.65;1.27;;;;;;;;;;4373656;32;20089;-68
2021/10/25 12:12:31;;;;;;;2.70;1.10;;;;;;;;;;4384295;32;20185;-66
2021/10/25 12:15:04;;;;;;;2.70;1.20;;;;;;;;;;4367668;32;20584;-63
2021/10/25 12:17:35;;;;;;;2.53;0.82;;;;;;;;;;4357608;32;20112;-64
2021/10/25 12:20:04;;;;;;;1.42;1.17;;;;;;;;;;4376684;32;20085;-63
2021/10/25 12:22:30;;;;;;;2.55;1.30;;;;;;;;;;4368542;32;20459;-64
2021/10/25 12:24:57;;;;;;;2.90;1.10;;;;;;;;;;4382898;32;20153;-65
2021/10/25 12:27:41;;;;;;;1.40;1.00;;;;;;;;;;4376348;32;20101;-62
2021/10/25 12:30:13;;;;;;;1.85;1.25;;;;;;;;;;4385283;32;20471;-65
2021/10/25 12:32:51;;;;;;;1.60;1.40;;;;;;;;;;4380361;32;20165;-65
2021/10/25 12:35:19;;;;;;;1.98;1.02;;;;;;;;;;4362219;32;20089;-66
2021/10/25 12:37:46;;;;;;;0.80;0.73;;;;;;;;;;4382159;32;20105;-70
2021/10/25 12:40:17;;;;;;;1.27;1.15;;;;;;;;;;4372018;32;20065;-64
2021/10/25 12:42:44;;;;;;;1.75;1.27;;;;;;;;;;4382359;32;20069;-66
2021/10/25 12:45:18;;;;;;;2.12;1.08;;;;;;;;;;4371148;32;20140;-65
2021/10/25 12:47:51;;;;;;;1.10;0.98;;;;;;;;;;4369049;32;20473;-63
2021/10/25 12:50:17;;;;;;;2.70;0.47;;;;;;;;;;4377730;32;20494;-63
2021/10/25 12:52:52;;;;;;;1.50;1.17;;;;;;;;;;4360567;32;20187;-64
2021/10/25 12:55:19;;;;;;;3.55;1.33;;;;;;;;;;4355549;32;20097;-63
2021/10/25 12:57:45;;;;;;;1.30;1.20;;;;;;;;;;4364819;32;20137;-62
2021/10/25 13:00:16;;;;;;;2.33;1.20;;;;;;;;;;4373256;32;20488;-62
2021/10/25 13:02:48;;;;;;;2.75;1.15;;;;;;;;;;4358768;32;20061;-63
2021/10/25 13:05:22;;;;;;;1.27;1.10;;;;;;;;;;4379735;32;20240;-62
2021/10/25 13:07:50;;;;;;;1.27;1.02;;;;;;;;;;4378515;32;20519;-63
2021/10/25 13:10:28;;;;;;;1.12;1.00;;;;;;;;;;4371322;32;20211;-63
2021/10/25 13:12:55;;;;;;;1.15;0.90;;;;;;;;;;4374367;32;20158;-63
2021/10/25 13:15:23;;;;;;;2.03;1.30;;;;;;;;;;4376583;32;20082;-64
2021/10/25 13:17:54;;;;;;;2.75;1.60;;;;;;;;;;4374111;32;20047;-66
2021/10/25 13:20:21;;;;;;;1.77;0.88;;;;;;;;;;4376990;32;20062;-63
2021/10/25 13:22:53;;;;;;;2.22;1.35;;;;;;;;;;4362652;32;20096;-64
2021/10/25 13:25:19;;;;;;;1.25;0.75;;;;;;;;;;4375464;32;20096;-64
2021/10/25 13:27:48;;;;;;;1.08;0.95;;;;;;;;;;4359723;32;20508;-65
2021/10/25 13:30:14;;;;;;;2.17;0.77;;;;;;;;;;4374120;32;20073;-64
2021/10/25 13:32:41;;;;;;;4.05;1.25;;;;;;;;;;4369821;32;20101;-63
2021/10/25 13:35:08;;;;;;;1.33;1.00;;;;;;;;;;4351770;32;20090;-65
2021/10/25 13:37:34;;;;;;;1.42;0.90;;;;;;;;;;4379190;32;20085;-64
2021/10/25 13:40:01;;;;;;;1.37;0.88;;;;;;;;;;4374537;32;20062;-65
2021/10/25 13:42:28;;;;;;;3.10;1.33;;;;;;;;;;4376945;32;20165;-67
2021/10/25 13:44:54;;;;;;;2.50;1.20;;;;;;;;;;4360685;32;20070;-66
2021/10/25 13:47:21;;;;;;;2.40;1.35;;;;;;;;;;4381250;32;20179;-64
2021/10/25 13:49:48;;;;;;;2.45;1.45;;;;;;;;;;4375660;32;20512;-63
2021/10/25 13:52:15;;;;;;;2.85;1.62;;;;;;;;;;4376704;32;20504;-65
2021/10/25 13:54:42;;;;;;;1.75;1.17;;;;;;;;;;4383461;32;20146;-63
2021/10/25 13:57:09;;;;;;;2.17;1.45;;;;;;;;;;4377816;32;20536;-65
2021/10/25 13:59:39;;;;;;;1.02;0.80;;;;;;;;;;4373161;32;20077;-64
2021/10/25 14:02:11;;;;;;;3.58;1.52;;;;;;;;;;4383021;32;20074;-65
2021/10/25 14:04:45;;;;;;;2.22;1.45;;;;;;;;;;4384327;32;20191;-62
2021/10/25 14:07:16;;;;;;;2.47;1.85;;;;;;;;;;4384686;32;20099;-68
2021/10/25 14:09:44;;;;;;;1.85;1.30;;;;;;;;;;4374362;32;20161;-65
2021/10/25 14:12:17;;;;;;;3.62;1.55;;;;;;;;;;4374043;32;20085;-62
2021/10/25 14:14:46;;;;;;;2.28;1.33;;;;;;;;;;4377573;32;20070;-65
2021/10/25 14:17:13;;;;;;;3.37;1.30;;;;;;;;;;4373558;32;20101;-66
2021/10/25 14:19:40;;;;;;;2.55;1.30;;;;;;;;;;4383007;32;20170;-67
2021/10/25 14:22:07;;;;;;;2.30;1.50;;;;;;;;;;4366094;32;20074;-67
2021/10/25 14:24:34;;;;;;;2.70;1.45;;;;;;;;;;4355458;32;20074;-66
2021/10/25 14:27:01;;;;;;;2.55;1.58;;;;;;;;;;4361820;32;20101;-64
2021/10/25 14:29:29;;;;;;;1.90;1.12;;;;;;;;;;4368072;32;20098;-66
2021/10/25 14:31:55;;;;;;;1.40;1.15;;;;;;;;;;4384116;32;20085;-64
2021/10/25 14:34:22;;;;;;;1.92;1.50;;;;;;;;;;4353833;32;20093;-64
2021/10/25 14:36:53;;;;;;;2.60;1.37;;;;;;;;;;4357920;32;20463;-65
2021/10/25 14:39:26;;;;;;;1.20;1.10;;;;;;;;;;4368693;32;20094;-63
2021/10/25 14:44:50;;;;;;;4.40;1.42;;;;;;;;;;4361887;32;20078;-64
